Time;durP1;ratioP1;P1;durP2;ratioP2;P2;SDS_P1;SDS_P2;PMS_P1;PMS_P2;Temp;Humidity;BMP_temperature;BMP_pressure;BME280_temperature;BME280_humidity;BME280_pressure;Samples;Min_cycle;Max_cycle;Signal;HPM_P1;HPM_P2
2023/09/25 00:00:00;;;;;;;2.20;1.05;;;8.40;99.90;;;7.25;100.00;98344.09;4967028;28;20109;-75
2023/09/25 00:02:28;;;;;;;3.90;1.45;;;8.40;99.90;;;7.31;100.00;98345.72;4945260;28;20050;-74
2023/09/25 00:04:55;;;;;;;4.93;1.42;;;8.40;99.90;;;7.37;100.00;98345.63;4962158;28;20077;-75
2023/09/25 00:07:23;;;;;;;5.25;1.45;;;8.40;99.90;;;7.30;100.00;98342.28;4963564;28;20128;-75
2023/09/25 00:09:50;;;;;;;4.47;1.77;;;8.30;99.90;;;7.20;100.00;98338.13;4967597;28;20134;-75
2023/09/25 00:12:19;;;;;;;6.03;2.03;;;8.30;99.90;;;7.17;100.00;98343.38;4967390;28;20117;-75
2023/09/25 00:14:46;;;;;;;5.13;1.70;;;8.30;99.90;;;7.30;100.00;98337.13;4963726;28;20065;-75
2023/09/25 00:17:14;;;;;;;3.22;1.55;;;8.30;99.90;;;7.33;100.00;98337.06;4965894;28;20065;-75
2023/09/25 00:19:42;;;;;;;3.13;1.35;;;8.40;99.90;;;7.31;100.00;98341.41;4979635;28;20055;-74
2023/09/25 00:22:09;;;;;;;5.28;1.17;;;8.40;99.90;;;7.25;100.00;98338.94;4978616;28;20047;-75
2023/09/25 00:24:37;;;;;;;3.97;1.00;;;8.40;99.90;;;7.12;100.00;98342.59;4979313;28;20051;-76
2023/09/25 00:27:04;;;;;;;2.83;0.93;;;8.40;99.90;;;7.03;100.00;98343.59;4980794;28;20149;-76
2023/09/25 00:29:31;;;;;;;2.45;1.10;;;8.30;99.90;;;6.98;100.00;98347.09;4964485;28;20091;-76
2023/09/25 00:31:58;;;;;;;3.08;1.17;;;8.30;99.90;;;6.95;100.00;98344.59;4981323;28;20195;-76
2023/09/25 00:34:25;;;;;;;3.03;1.15;;;8.20;99.90;;;6.89;100.00;98345.56;4982146;28;20219;-76
2023/09/25 00:36:52;;;;;;;2.60;0.90;;;8.10;99.90;;;6.86;100.00;98345.56;4980457;28;20122;-75
2023/09/25 00:39:19;;;;;;;4.22;1.40;;;8.10;99.90;;;6.91;100.00;98343.78;4949976;28;20500;-76
2023/09/25 00:41:47;;;;;;;5.47;1.40;;;8.10;99.90;;;6.66;100.00;98338.13;4963708;28;20050;-76
2023/09/25 00:44:14;;;;;;;3.05;1.20;;;8.10;99.90;;;6.73;100.00;98346.63;4981354;28;20941;-76
2023/09/25 00:46:41;;;;;;;1.92;0.77;;;8.00;99.90;;;6.79;100.00;98333.66;4964770;28;20169;-76
2023/09/25 00:49:08;;;;;;;5.18;1.23;;;8.00;99.90;;;6.89;100.00;98333.50;4963773;28;20162;-76
2023/09/25 00:51:36;;;;;;;2.88;1.08;;;8.00;99.90;;;6.82;100.00;98331.00;4964374;28;20125;-76
2023/09/25 00:54:04;;;;;;;2.35;0.95;;;8.00;99.90;;;6.91;100.00;98330.88;4963651;28;20518;-76
2023/09/25 00:56:31;;;;;;;2.75;1.00;;;8.00;99.90;;;6.77;100.00;98333.66;4981212;28;20153;-75
2023/09/25 00:58:59;;;;;;;4.13;1.05;;;8.00;99.90;;;6.77;100.00;98330.22;4966124;28;20806;-75
2023/09/25 01:01:27;;;;;;;2.47;1.02;;;8.00;99.90;;;6.87;100.00;98339.56;4963576;28;20509;-76
2023/09/25 01:03:54;;;;;;;3.63;1.30;;;8.00;99.90;;;6.84;100.00;98334.41;4949736;28;20054;-75
2023/09/25 01:06:22;;;;;;;3.60;0.93;;;8.00;99.90;;;6.72;100.00;98339.78;4964062;28;20109;-75
2023/09/25 01:08:49;;;;;;;3.35;1.17;;;8.00;99.90;;;6.57;100.00;98338.25;4962996;28;20050;-76
2023/09/25 01:11:16;;;;;;;2.75;0.95;;;7.90;99.90;;;6.49;100.00;98338.38;4962721;28;20053;-75
2023/09/25 01:13:44;;;;;;;6.75;1.48;;;7.90;99.90;;;6.54;100.00;98328.84;4978667;28;20066;-75
2023/09/25 01:16:11;;;;;;;3.03;1.08;;;7.90;99.90;;;6.49;100.00;98328.06;4961398;28;20511;-75
2023/09/25 01:18:39;;;;;;;4.13;1.30;;;7.80;99.90;;;6.57;100.00;98328.81;4947074;28;20740;-75
2023/09/25 01:21:06;;;;;;;4.22;0.90;;;7.80;99.90;;;6.57;100.00;98326.25;4961864;28;20050;-75
2023/09/25 01:23:33;;;;;;;2.50;0.95;;;7.80;99.90;;;6.60;100.00;98322.75;4963606;28;20061;-75
2023/09/25 01:26:01;;;;;;;4.38;1.10;;;7.70;99.90;;;6.45;100.00;98321.25;4978777;28;20097;-75
2023/09/25 01:28:29;;;;;;;5.80;1.20;;;7.80;99.90;;;6.40;100.00;98310.16;4963311;28;20189;-76
2023/09/25 01:30:56;;;;;;;3.92;1.20;;;7.70;99.90;;;6.46;100.00;98302.34;4978078;28;20053;-76
2023/09/25 01:33:23;;;;;;;2.35;0.75;;;7.70;99.90;;;6.39;100.00;98308.47;4978693;28;20105;-75
2023/09/25 01:35:50;;;;;;;5.28;1.30;;;7.60;99.90;;;6.19;100.00;98298.41;4962252;28;21076;-76
2023/09/25 01:38:18;;;;;;;3.20;0.95;;;7.50;99.90;;;6.37;100.00;98298.16;4962660;28;20046;-76
2023/09/25 01:40:45;;;;;;;3.13;1.13;;;7.40;99.90;;;6.38;100.00;98292.09;4982008;28;20054;-76
2023/09/25 01:43:12;;;;;;;3.53;1.20;;;7.50;99.90;;;6.40;100.00;98298.09;4948786;28;20585;-75
2023/09/25 01:45:41;;;;;;;2.83;1.00;;;7.50;99.90;;;6.35;100.00;98291.31;4961473;28;20141;-75
2023/09/25 01:48:08;;;;;;;3.10;1.05;;;7.50;99.90;;;6.34;100.00;98289.59;4979356;28;20058;-75
2023/09/25 01:50:36;;;;;;;3.50;1.20;;;7.50;99.90;;;6.36;100.00;98291.28;4980394;28;20054;-77
2023/09/25 01:53:03;;;;;;;4.68;1.15;;;7.50;99.90;;;6.48;100.00;98292.84;4962374;28;20062;-76
2023/09/25 01:55:35;;;;;;;3.17;1.10;;;7.50;99.90;;;6.39;100.00;98298.13;4962468;28;20058;-75
2023/09/25 01:58:04;;;;;;;2.92;1.17;;;7.50;99.90;;;6.38;100.00;98299.84;4962628;28;20129;-76
2023/09/25 02:00:31;;;;;;;3.85;0.88;;;7.50;99.90;;;6.32;100.00;98296.50;4960985;28;20238;-76
2023/09/25 02:02:58;;;;;;;3.45;1.30;;;7.50;99.90;;;6.30;100.00;98293.13;4946511;28;20064;-76
2023/09/25 02:05:26;;;;;;;2.63;1.00;;;7.50;99.90;;;6.33;100.00;98296.47;4947600;28;20133;-76
2023/09/25 02:07:54;;;;;;;5.38;1.67;;;7.50;99.90;;;6.38;100.00;98286.94;4965399;28;20614;-75
2023/09/25 02:10:21;;;;;;;2.42;0.90;;;7.50;99.90;;;6.37;100.00;98293.00;4978959;28;20132;-75
2023/09/25 02:12:49;;;;;;;1.85;0.93;;;7.50;99.90;;;6.02;100.00;98296.91;4945802;28;20723;-75
2023/09/25 02:15:16;;;;;;;2.97;1.00;;;7.50;99.90;;;5.94;100.00;98297.84;4978193;28;20043;-75
2023/09/25 02:17:43;;;;;;;3.85;1.10;;;7.40;99.90;;;6.01;100.00;98292.63;4961789;28;20141;-75
2023/09/25 02:22:41;;;;;;;4.90;1.27;;;7.40;99.90;;;6.06;100.00;98279.66;4979743;28;20185;-76
2023/09/25 02:25:08;;;;;;;3.08;1.05;;;7.30;99.90;;;6.01;100.00;98278.88;4963120;28;20133;-75
2023/09/25 02:27:38;;;;;;;2.65;0.82;;;7.30;99.90;;;6.00;100.00;98280.63;4980188;28;20047;-76
2023/09/25 02:30:08;;;;;;;3.00;1.08;;;7.30;99.90;;;6.07;100.00;98268.50;4962375;28;20054;-76
2023/09/25 02:32:36;;;;;;;3.72;1.38;;;7.20;99.90;;;6.02;100.00;98266.00;4950266;28;20056;-76
2023/09/25 02:35:05;;;;;;;3.08;1.23;;;7.20;99.90;;;5.89;100.00;98272.13;4961061;28;20506;-75
2023/09/25 02:37:33;;;;;;;3.45;1.10;;;7.20;99.90;;;6.06;100.00;98267.63;4962042;28;20779;-75
2023/09/25 02:40:22;;;;;;;4.38;1.30;;;7.20;99.90;;;6.04;100.00;98266.81;4963504;28;20054;-76
2023/09/25 02:42:50;;;;;;;3.05;0.90;;;7.20;99.90;;;6.06;100.00;98266.78;4977642;28;20141;-75
2023/09/25 02:45:17;;;;;;;7.55;1.52;;;7.20;99.90;;;6.08;100.00;98265.88;4944334;28;20058;-75
2023/09/25 02:47:45;;;;;;;2.20;0.70;;;7.20;99.90;;;6.13;100.00;98270.13;4961944;28;20066;-76
2023/09/25 02:50:13;;;;;;;4.28;1.13;;;7.30;99.90;;;6.15;100.00;98269.22;4964163;28;20077;-76
2023/09/25 02:52:42;;;;;;;2.53;0.88;;;7.30;99.90;;;6.16;100.00;98270.94;4963365;28;20121;-76
2023/09/25 02:55:11;;;;;;;3.47;1.00;;;7.30;99.90;;;6.18;100.00;98271.78;4961171;28;20046;-76
2023/09/25 02:57:38;;;;;;;3.25;1.17;;;7.30;99.90;;;6.06;100.00;98271.94;4945535;28;20144;-76
2023/09/25 03:00:10;;;;;;;3.88;1.00;;;7.30;99.90;;;5.98;100.00;98273.78;4930766;28;20069;-76
2023/09/25 03:02:38;;;;;;;2.92;1.17;;;7.20;99.90;;;5.85;100.00;98268.72;4962660;28;20062;-75
2023/09/25 03:05:05;;;;;;;3.42;1.15;;;7.20;99.90;;;5.63;100.00;98265.59;4962442;28;20046;-75
2023/09/25 03:07:32;;;;;;;3.60;1.00;;;7.00;99.90;;;5.59;100.00;98258.75;4960345;28;20046;-76
2023/09/25 03:09:59;;;;;;;3.90;0.95;;;6.90;99.90;;;5.61;100.00;98256.16;4948452;28;20704;-76
2023/09/25 03:12:28;;;;;;;2.92;1.10;;;6.80;99.90;;;5.60;100.00;98259.59;4951975;28;20051;-76
2023/09/25 03:14:56;;;;;;;3.78;1.13;;;6.80;99.90;;;5.63;100.00;98262.13;4980997;28;20054;-76
2023/09/25 03:17:23;;;;;;;2.97;1.10;;;6.70;99.90;;;5.72;100.00;98256.88;4984387;28;20061;-76
2023/09/25 03:19:52;;;;;;;5.07;1.35;;;6.80;99.90;;;5.80;100.00;98259.38;4950380;28;20047;-76
2023/09/25 03:22:19;;;;;;;2.70;1.00;;;6.90;99.90;;;5.71;100.00;98262.91;4979408;28;20189;-76
2023/09/25 03:24:46;;;;;;;4.55;1.17;;;6.90;99.90;;;5.81;100.00;98267.06;4982858;28;20132;-75
2023/09/25 03:27:14;;;;;;;2.78;0.90;;;6.90;99.90;;;5.75;100.00;98266.31;4961489;28;21730;-76
2023/09/25 03:29:41;;;;;;;3.85;1.00;;;6.90;99.90;;;5.70;100.00;98256.03;4962084;28;20112;-76
2023/09/25 03:32:08;;;;;;;3.47;1.08;;;6.90;99.90;;;5.57;100.00;98260.50;4961694;28;20077;-76
2023/09/25 03:34:35;;;;;;;4.80;1.00;;;6.90;99.90;;;5.57;100.00;98255.34;4961381;28;20060;-76
2023/09/25 03:37:02;;;;;;;3.38;1.30;;;6.90;99.90;;;5.60;100.00;98255.28;4961242;28;20145;-75
2023/09/25 03:39:29;;;;;;;6.28;1.17;;;6.90;99.90;;;5.73;100.00;98247.44;4962264;28;20065;-76
2023/09/25 03:41:56;;;;;;;2.65;0.95;;;6.90;99.90;;;5.75;100.00;98253.44;4960909;28;20053;-75
2023/09/25 03:44:23;;;;;;;4.38;1.30;;;7.00;99.90;;;5.75;100.00;98249.13;4945805;28;21409;-76
2023/09/25 03:46:50;;;;;;;3.67;1.20;;;6.90;99.90;;;5.81;100.00;98251.59;4963653;28;20504;-76
2023/09/25 03:49:18;;;;;;;4.97;1.10;;;7.00;99.90;;;5.60;100.00;98259.59;4963974;28;20050;-76
2023/09/25 03:51:45;;;;;;;2.05;1.05;;;6.90;99.90;;;5.47;100.00;98263.19;4977673;28;20042;-76
2023/09/25 03:54:12;;;;;;;2.53;0.90;;;6.90;99.90;;;5.47;100.00;98264.03;4981660;28;20046;-76
2023/09/25 03:56:40;;;;;;;2.50;0.90;;;6.90;99.90;;;5.44;100.00;98264.06;4966632;28;20050;-75
2023/09/25 03:59:07;;;;;;;2.97;1.08;;;6.80;99.90;;;5.57;100.00;98273.38;4982271;28;20143;-76
2023/09/25 04:01:34;;;;;;;3.22;1.00;;;6.80;99.90;;;5.40;100.00;98273.53;4950863;28;20100;-76
2023/09/25 04:04:01;;;;;;;4.03;1.50;;;6.70;99.90;;;5.34;100.00;98275.34;4965652;28;20846;-76
2023/09/25 04:06:28;;;;;;;5.72;1.05;;;6.70;99.90;;;5.27;100.00;98272.00;4964249;28;20081;-76
2023/09/25 04:08:55;;;;;;;3.65;1.00;;;6.60;99.90;;;5.37;100.00;98272.75;4963532;28;20136;-76
2023/09/25 04:11:23;;;;;;;8.98;1.08;;;6.60;99.90;;;5.33;100.00;98281.34;4965734;28;20145;-76
2023/09/25 04:13:50;;;;;;;7.93;1.08;;;6.50;99.90;;;5.17;100.00;98275.50;4982872;28;20137;-75
2023/09/25 04:16:20;;;;;;;4.07;0.90;;;6.40;99.90;;;5.14;100.00;98271.25;4981610;28;20047;-76
2023/09/25 04:18:47;;;;;;;3.30;1.42;;;6.40;99.90;;;5.19;100.00;98276.34;4964674;28;20062;-75
2023/09/25 04:21:16;;;;;;;2.47;1.00;;;6.40;99.90;;;5.21;100.00;98269.47;4964935;28;20050;-76
2023/09/25 04:23:43;;;;;;;3.22;1.10;;;6.40;99.90;;;5.37;100.00;98267.59;4983050;28;20050;-76
2023/09/25 04:26:11;;;;;;;3.53;1.25;;;6.40;99.90;;;5.39;100.00;98273.56;4982901;28;20085;-76
2023/09/25 04:28:42;;;;;;;4.72;1.00;;;6.50;99.90;;;5.27;100.00;98279.72;4981525;28;20050;-76
2023/09/25 04:31:10;;;;;;;2.83;1.17;;;6.50;99.90;;;5.29;100.00;98271.94;4980710;28;20053;-75
2023/09/25 04:33:38;;;;;;;4.40;1.23;;;6.50;99.90;;;4.93;100.00;98272.31;4968198;28;20053;-75
2023/09/25 04:36:10;;;;;;;3.20;1.25;;;6.40;99.90;;;5.16;100.00;98278.97;4979642;28;20062;-74
2023/09/25 04:38:37;;;;;;;3.65;1.13;;;6.30;99.90;;;5.03;100.00;98279.06;4980018;28;20160;-76
2023/09/25 04:41:05;;;;;;;5.07;1.50;;;6.40;99.90;;;5.01;100.00;98273.06;4962852;28;20050;-76
2023/09/25 04:43:33;;;;;;;3.65;0.90;;;6.30;99.90;;;4.95;100.00;98270.56;4980381;28;20140;-76
2023/09/25 04:46:03;;;;;;;2.22;0.80;;;6.30;99.90;;;4.95;100.00;98267.13;4979536;28;20433;-76
2023/09/25 04:48:30;;;;;;;5.07;1.38;;;6.20;99.90;;;4.99;100.00;98271.38;4981523;28;20078;-76
2023/09/25 04:50:57;;;;;;;5.28;1.05;;;6.30;99.90;;;4.99;100.00;98269.66;4965618;28;20057;-76
2023/09/25 04:53:26;;;;;;;6.55;1.58;;;6.20;99.90;;;5.07;100.00;98271.34;4963124;28;20043;-76
2023/09/25 04:55:53;;;;;;;3.15;0.95;;;6.30;99.90;;;5.26;100.00;98277.16;4979447;28;20074;-76
2023/09/25 04:58:20;;;;;;;3.75;1.10;;;6.20;99.90;;;5.11;100.00;98284.16;4966958;28;20112;-76
2023/09/25 05:00:48;;;;;;;4.55;0.95;;;6.20;99.90;;;5.08;100.00;98280.75;4969135;28;20061;-76
2023/09/25 05:03:15;;;;;;;2.58;0.90;;;6.20;99.90;;;5.07;100.00;98284.19;4988763;28;20061;-76
2023/09/25 05:05:43;;;;;;;2.90;1.02;;;6.20;99.90;;;5.13;100.00;98289.25;4984042;28;20146;-76
2023/09/25 05:08:11;;;;;;;4.97;1.23;;;6.30;99.90;;;4.93;100.00;98284.31;4967194;28;20169;-76
2023/09/25 05:10:39;;;;;;;5.47;1.13;;;6.30;99.90;;;4.85;100.00;98284.38;4983148;28;20907;-76
2023/09/25 05:13:06;;;;;;;6.13;1.42;;;6.20;99.90;;;4.85;100.00;98278.38;4951170;28;20138;-76
2023/09/25 05:15:33;;;;;;;4.28;1.00;;;6.10;99.90;;;4.93;100.00;98281.75;4986188;28;20557;-76
2023/09/25 05:18:00;;;;;;;4.18;0.93;;;6.10;99.90;;;4.94;100.00;98286.00;4986087;28;20058;-76
2023/09/25 05:20:28;;;;;;;3.42;1.38;;;6.20;99.90;;;4.67;100.00;98287.09;4968262;28;20057;-75
2023/09/25 05:22:56;;;;;;;2.45;0.90;;;6.10;99.90;;;4.78;100.00;98283.56;4983206;28;20477;-76
2023/09/25 05:25:24;;;;;;;2.65;1.25;;;6.10;99.90;;;4.96;100.00;98285.13;4984430;28;20836;-75
2023/09/25 05:27:55;;;;;;;3.08;1.17;;;6.10;99.90;;;4.94;100.00;98286.84;4986318;28;20081;-76
2023/09/25 05:30:23;;;;;;;3.00;1.20;;;6.10;99.90;;;4.92;100.00;98283.44;4971252;28;20513;-76
2023/09/25 05:32:52;;;;;;;4.22;1.33;;;6.20;99.90;;;4.90;100.00;98292.88;4971257;28;20050;-76
2023/09/25 05:35:20;;;;;;;2.83;0.90;;;6.20;99.90;;;5.08;100.00;98291.03;4970099;28;20396;-76
2023/09/25 05:37:48;;;;;;;4.00;1.35;;;6.20;99.90;;;4.99;100.00;98286.81;4951633;28;20054;-76
2023/09/25 05:40:17;;;;;;;3.65;1.17;;;6.20;99.90;;;4.88;100.00;98291.19;4945461;28;20046;-76
2023/09/25 05:42:47;;;;;;;4.35;0.90;;;6.20;99.90;;;4.75;100.00;98285.31;4966616;28;20082;-75
2023/09/25 05:45:20;;;;;;;1.75;0.70;;;6.10;99.90;;;4.95;100.00;98283.44;4960822;28;20061;-76
2023/09/25 05:47:48;;;;;;;3.40;1.33;;;6.10;99.90;;;5.03;100.00;98285.94;4970408;28;20050;-76
2023/09/25 05:50:15;;;;;;;4.47;1.30;;;6.10;99.90;;;5.03;100.00;98285.94;4955701;28;20065;-76
2023/09/25 05:52:42;;;;;;;4.07;1.20;;;6.20;99.90;;;5.00;100.00;98291.97;4985227;28;20133;-76
2023/09/25 05:55:12;;;;;;;2.83;1.00;;;6.20;99.90;;;5.29;100.00;98296.00;4982960;28;20050;-76
2023/09/25 05:57:41;;;;;;;1.67;0.77;;;6.20;99.90;;;5.41;100.00;98301.00;4969668;28;20054;-76
2023/09/25 06:00:13;;;;;;;2.75;1.30;;;6.30;99.90;;;5.34;100.00;98301.94;4966980;28;20141;-76
2023/09/25 06:02:42;;;;;;;2.20;0.90;;;6.30;99.90;;;5.31;100.00;98298.53;4983368;28;20054;-76
2023/09/25 06:05:15;;;;;;;4.97;1.15;;;6.40;99.90;;;5.17;100.00;98304.66;4969875;28;20054;-74
2023/09/25 06:07:43;;;;;;;1.65;0.93;;;6.40;99.90;;;5.35;100.00;98306.22;4981202;28;20178;-76
2023/09/25 06:10:12;;;;;;;3.85;1.13;;;6.40;99.90;;;5.37;100.00;98313.94;4981468;28;20583;-76
2023/09/25 06:12:39;;;;;;;4.68;1.52;;;6.40;99.90;;;5.53;100.00;98314.63;4980343;28;20093;-76
2023/09/25 06:15:09;;;;;;;3.63;1.27;;;6.50;99.90;;;5.62;100.00;98319.69;4968459;28;20046;-76
2023/09/25 06:17:39;;;;;;;2.72;1.08;;;6.60;99.90;;;5.28;100.00;98322.59;4949776;28;20054;-76
2023/09/25 06:20:14;;;;;;;4.60;1.27;;;6.60;99.90;;;5.65;100.00;98317.91;4981871;28;20054;-76
2023/09/25 06:22:44;;;;;;;3.20;1.30;;;6.60;99.90;;;5.73;100.00;98314.41;4982007;28;20137;-76
2023/09/25 06:25:17;;;;;;;4.15;1.13;;;6.70;99.90;;;5.68;100.00;98321.31;4952771;28;20047;-75
2023/09/25 06:27:46;;;;;;;3.65;1.15;;;6.70;99.90;;;5.84;100.00;98326.28;4952307;28;20062;-76
2023/09/25 06:30:16;;;;;;;4.80;1.30;;;6.80;99.90;;;5.92;100.00;98325.34;4982429;28;20057;-75
2023/09/25 06:32:43;;;;;;;3.45;1.08;;;6.90;99.90;;;6.16;100.00;98326.78;4966974;28;20125;-76
2023/09/25 06:35:10;;;;;;;2.45;0.95;;;7.00;99.90;;;6.25;100.00;98321.53;4984203;28;20072;-76
2023/09/25 06:37:38;;;;;;;3.47;0.80;;;7.20;99.90;;;6.33;100.00;98318.84;4976669;28;20051;-76
2023/09/25 06:40:10;;;;;;;2.95;1.10;;;7.30;99.90;;;6.54;100.00;98320.25;4979870;28;20061;-76
2023/09/25 06:42:39;;;;;;;3.20;1.27;;;7.30;99.90;;;6.78;100.00;98324.22;4965698;28;20046;-76
2023/09/25 06:45:08;;;;;;;4.72;1.10;;;7.50;99.90;;;6.90;100.00;98318.84;4985309;28;20056;-76
2023/09/25 06:47:35;;;;;;;5.55;1.20;;;7.50;99.90;;;6.79;100.00;98319.00;4967552;28;20058;-76
2023/09/25 06:50:03;;;;;;;4.47;1.10;;;7.60;99.90;;;7.02;100.00;98313.47;4965455;28;20136;-76
2023/09/25 06:52:30;;;;;;;3.95;1.23;;;7.70;99.90;;;7.21;100.00;98316.63;4968610;28;20054;-76
2023/09/25 06:54:57;;;;;;;3.72;1.00;;;7.80;99.90;;;7.20;100.00;98311.47;4964632;28;20058;-75
2023/09/25 06:57:25;;;;;;;3.70;1.20;;;8.00;99.90;;;7.58;100.00;98320.28;4976570;28;20097;-76
2023/09/25 06:59:52;;;;;;;4.10;1.27;;;8.10;99.90;;;7.85;100.00;98317.16;4965305;28;20085;-76
2023/09/25 07:02:20;;;;;;;3.67;1.13;;;8.30;99.90;;;7.79;100.00;98317.28;4981684;28;20061;-76
2023/09/25 07:04:47;;;;;;;5.05;1.50;;;8.40;99.90;;;8.00;100.00;98315.13;4968335;28;20527;-76
2023/09/25 07:07:15;;;;;;;2.95;1.02;;;8.50;99.90;;;8.10;100.00;98316.66;4966345;28;20042;-76
2023/09/25 07:09:43;;;;;;;3.92;1.00;;;8.70;99.90;;;8.27;100.00;98311.97;4963314;28;20101;-76
2023/09/25 07:12:14;;;;;;;3.60;1.33;;;8.80;99.90;;;8.24;100.00;98321.56;4978294;28;20145;-76
2023/09/25 07:14:55;;;;;;;2.00;0.90;;;8.90;99.90;;;8.62;100.00;98325.03;4980952;28;20065;-76
2023/09/25 07:17:23;;;;;;;3.90;1.02;;;9.00;99.90;;;8.76;100.00;98320.44;4968638;28;20463;-76
2023/09/25 07:19:51;;;;;;;5.00;1.25;;;9.10;99.90;;;8.86;100.00;98323.63;4985665;28;20054;-75
2023/09/25 07:22:22;;;;;;;2.80;1.08;;;9.20;99.90;;;8.87;100.00;98330.50;4975875;28;20514;-76
2023/09/25 07:24:50;;;;;;;2.92;1.20;;;9.40;99.90;;;9.04;100.00;98325.78;4959146;28;20205;-76
2023/09/25 07:27:17;;;;;;;4.22;1.60;;;9.60;99.90;;;9.45;100.00;98326.47;4969080;28;20057;-75
2023/09/25 07:29:47;;;;;;;4.57;1.73;;;9.70;99.90;;;9.79;100.00;98316.06;4971677;28;20685;-75
2023/09/25 07:32:15;;;;;;;4.65;1.88;;;10.00;99.90;;;10.07;100.00;98314.44;4969947;28;20046;-76
2023/09/25 07:34:46;;;;;;;3.40;1.75;;;10.30;99.90;;;10.56;100.00;98313.00;4968258;28;20514;-76
2023/09/25 07:37:13;;;;;;;3.17;1.63;;;10.50;99.90;;;11.73;100.00;98297.84;4986457;28;20078;-76
2023/09/25 07:39:40;;;;;;;4.00;1.75;;;10.80;99.90;;;12.93;100.00;98285.50;4984442;28;20098;-76
2023/09/25 07:42:08;;;;;;;4.05;1.45;;;11.30;99.90;;;14.10;100.00;98277.03;4965401;28;20054;-76
2023/09/25 07:44:36;;;;;;;5.03;1.08;;;11.80;99.90;;;14.72;100.00;98272.44;4982089;28;20745;-76
2023/09/25 07:47:10;;;;;;;3.85;1.02;;;12.50;99.90;;;15.83;100.00;98280.81;4970539;28;20060;-76
2023/09/25 07:49:44;;;;;;;3.63;1.35;;;13.60;99.90;;;16.13;100.00;98285.34;4955662;28;20145;-76
2023/09/25 07:52:16;;;;;;;1.98;0.90;;;14.90;99.90;;;16.96;100.00;98286.84;4971836;28;20074;-77
2023/09/25 07:54:48;;;;;;;3.47;1.10;;;16.20;99.90;;;17.44;100.00;98295.44;4987608;28;20057;-77
2023/09/25 07:57:20;;;;;;;2.78;1.10;;;17.50;99.90;;;17.85;100.00;98307.06;4990161;28;20050;-77
2023/09/25 07:59:49;;;;;;;2.20;1.05;;;18.80;99.90;;;18.39;100.00;98305.44;4966856;28;20050;-76
2023/09/25 08:02:20;;;;;;;1.67;0.90;;;20.00;99.90;;;19.39;100.00;98319.22;4954604;28;20050;-77
2023/09/25 08:04:49;;;;;;;;;;;20.40;99.90;;;17.54;100.00;98324.63;4977752;28;20046;-77
2023/09/25 08:07:18;;;;;;;2.13;1.10;;;20.50;99.90;;;16.38;100.00;98329.41;4986187;28;20012;-77
2023/09/25 08:09:49;;;;;;;3.53;1.48;;;20.00;99.90;;;16.76;100.00;98335.13;4972612;28;20053;-77
2023/09/25 08:12:16;;;;;;;3.42;1.60;;;19.60;99.90;;;17.48;100.00;98331.06;4975640;28;20076;-77
2023/09/25 08:14:45;;;;;;;2.75;1.40;;;19.70;99.90;;;18.15;100.00;98335.84;4990643;28;20057;-77
2023/09/25 08:17:15;;;;;;;3.28;1.40;;;19.90;99.90;;;19.15;100.00;98340.09;4956529;28;20077;-77
2023/09/25 08:19:42;;;;;;;2.63;1.40;;;20.10;99.90;;;18.40;100.00;98340.44;4985637;28;20047;-76
2023/09/25 08:22:10;;;;;;;2.38;1.20;;;19.90;99.90;;;18.91;100.00;98335.50;4973472;28;20088;-77
2023/09/25 08:24:37;;;;;;;3.67;1.20;;;20.20;99.90;;;18.09;100.00;98336.25;4972508;28;20536;-76
2023/09/25 08:27:08;;;;;;;2.83;1.27;;;20.60;99.90;;;18.94;100.00;98331.81;4988697;28;20054;-77
2023/09/25 08:29:35;;;;;;;2.80;1.10;;;21.00;99.90;;;19.55;100.00;98340.09;4971661;28;20074;-77
2023/09/25 08:32:02;;;;;;;2.45;0.90;;;20.90;99.90;;;19.54;100.00;98339.22;4985174;28;20050;-76
2023/09/25 08:34:29;;;;;;;3.90;1.08;;;21.50;99.90;;;20.70;100.00;98328.69;4968678;28;20129;-76
2023/09/25 08:36:56;;;;;;;3.45;1.10;;;22.30;99.90;;;20.95;100.00;98333.84;4983924;28;20054;-77
2023/09/25 08:39:23;;;;;;;2.15;0.93;;;;;;;20.38;100.00;98329.97;4964793;28;20042;-76
2023/09/25 08:41:50;;;;;;;3.03;1.20;;;22.60;99.30;;;20.67;100.00;98327.94;4985814;28;20076;-77
2023/09/25 08:44:18;;;;;;;4.07;1.10;;;22.60;99.30;;;21.53;100.00;98320.81;4984514;28;20133;-76
2023/09/25 08:46:49;;;;;;;2.33;0.98;;;23.10;98.90;;;21.39;100.00;98327.06;4986514;28;20165;-76
2023/09/25 08:49:16;;;;;;;2.50;1.00;;;23.10;97.80;;;21.83;100.00;98330.84;4978959;28;20426;-77
2023/09/25 08:51:44;;;;;;;3.08;1.27;;;23.50;98.70;;;20.51;100.00;98324.69;4970319;28;20081;-77
2023/09/25 08:54:11;;;;;;;1.85;0.80;;;23.20;97.10;;;22.53;100.00;98318.38;4969344;28;20047;-76
2023/09/25 08:56:43;;;;;;;3.78;1.20;;;23.60;96.60;;;21.96;100.00;98316.66;4969276;28;20146;-77
2023/09/25 08:59:11;;;;;;;3.10;1.10;;;23.60;95.60;;;22.09;100.00;98314.75;4973517;28;20042;-77
2023/09/25 09:01:40;;;;;;;3.75;1.10;;;23.60;96.20;;;22.34;100.00;98308.41;4973670;28;20047;-77
2023/09/25 09:04:07;;;;;;;2.50;0.77;;;24.00;95.00;;;23.77;100.00;98299.41;4987015;28;20414;-77
2023/09/25 09:06:35;;;;;;;2.92;0.90;;;24.60;95.60;;;23.79;100.00;98298.28;4958018;28;20042;-76
2023/09/25 09:09:02;;;;;;;1.90;0.80;;;24.90;94.80;;;21.43;100.00;98303.97;4987486;28;20073;-77
2023/09/25 09:11:29;;;;;;;2.25;0.77;;;25.10;92.70;;;23.01;100.00;98302.16;4957236;28;20078;-75
2023/09/25 09:14:00;;;;;;;0.95;0.60;;;24.90;92.80;;;23.35;100.00;98296.72;4967053;28;20053;-76
2023/09/25 09:16:27;;;;;;;1.52;0.70;;;25.20;92.90;;;23.98;100.00;98292.25;4969314;28;20058;-77
2023/09/25 09:19:07;;;;;;;3.03;0.77;;;25.50;92.50;;;23.38;100.00;98292.00;4977103;28;20273;-77
2023/09/25 09:21:35;;;;;;;1.92;0.85;;;25.50;90.60;;;23.16;100.00;98290.31;4954216;28;20046;-77
2023/09/25 09:24:04;;;;;;;1.50;0.60;;;25.50;90.80;;;24.34;100.00;98278.56;4949499;28;20043;-77
2023/09/25 09:26:33;;;;;;;1.65;0.63;;;25.30;90.10;;;23.53;100.00;98281.06;4982264;28;20590;-77
2023/09/25 09:29:00;;;;;;;1.85;0.82;;;25.50;89.20;;;23.06;100.00;98275.28;4968589;28;20058;-76
2023/09/25 09:31:30;;;;;;;1.73;0.60;;;25.20;87.00;;;24.67;100.00;98268.63;4970599;28;20470;-76
2023/09/25 09:33:58;;;;;;;1.95;0.70;;;25.20;88.80;;;24.01;100.00;98280.53;4963588;28;20134;-76
2023/09/25 09:36:28;;;;;;;2.33;0.80;;;25.50;90.20;;;24.04;100.00;98271.47;4983378;28;20817;-76
2023/09/25 09:38:57;;;;;;;2.58;1.15;;;25.50;90.50;;;22.95;100.00;98292.06;4967768;28;20056;-76
2023/09/25 09:41:24;;;;;;;2.35;1.02;;;25.70;91.90;;;21.46;100.00;98301.94;4964807;28;20046;-75
2023/09/25 09:43:52;;;;;;;4.68;1.10;;;25.40;91.90;;;20.88;100.00;98307.06;4938358;28;20046;-76
2023/09/25 09:46:25;;;;;;;3.75;0.90;;;24.20;92.00;;;19.97;100.00;98317.06;4967228;28;20128;-76
2023/09/25 09:48:55;;;;;;;3.45;1.00;;;24.10;92.80;;;19.82;100.00;98314.56;4974855;28;20061;-77
2023/09/25 09:51:26;;;;;;;3.60;1.00;;;23.80;93.40;;;19.48;100.00;98320.38;4973427;28;20053;-77
2023/09/25 09:53:54;;;;;;;3.43;1.10;;;23.40;93.80;;;19.08;100.00;98328.28;4968583;28;21755;-76
2023/09/25 09:56:23;;;;;;;5.15;1.42;;;;;;;18.49;100.00;98326.72;4954852;28;20131;-76
2023/09/25 09:58:52;;;;;;;3.95;1.17;;;22.50;94.00;;;18.83;100.00;98332.50;4987172;28;20054;-75
2023/09/25 10:01:21;;;;;;;3.92;1.20;;;22.20;95.40;;;18.27;100.00;98334.25;4959478;28;20688;-77
2023/09/25 10:03:49;;;;;;;3.85;1.33;;;21.60;95.20;;;18.10;100.00;98332.66;4968814;28;20061;-75
2023/09/25 10:06:16;;;;;;;3.22;1.48;;;21.30;95.80;;;18.27;100.00;98332.50;4965466;28;20057;-75
2023/09/25 10:09:07;;;;;;;2.70;1.30;;;;;;;18.09;100.00;98331.00;4983761;28;20078;-75
2023/09/25 10:11:35;;;;;;;3.67;1.33;;;20.70;97.30;;;17.83;100.00;98332.56;4968491;28;20057;-76
2023/09/25 10:14:08;;;;;;;2.53;1.27;;;20.20;97.80;;;17.90;100.00;98333.88;4969490;28;20053;-77
2023/09/25 10:17:03;;;;;;;4.20;1.30;;;19.80;99.00;;;17.99;100.00;98330.69;4967935;28;20054;-77
2023/09/25 10:19:49;;;;;;;3.42;1.40;;;19.60;99.90;;;17.96;100.00;98334.34;4965100;28;20781;-75
2023/09/25 10:22:26;;;;;;;4.28;1.42;;;19.40;99.90;;;17.80;100.00;98337.97;4986246;28;20046;-75
2023/09/25 10:25:07;;;;;;;4.18;1.30;;;19.20;99.90;;;17.84;100.00;98335.09;4972456;28;20078;-75
2023/09/25 10:27:38;;;;;;;4.30;1.52;;;19.00;99.90;;;17.91;100.00;98325.06;4968510;28;20465;-75
2023/09/25 10:30:11;;;;;;;2.47;1.15;;;18.90;99.90;;;17.85;100.00;98318.41;4984835;28;20054;-76